Time;durP1;ratioP1;P1;durP2;ratioP2;P2;SDS_P1;SDS_P2;PMS_P1;PMS_P2;Temp;Humidity;BMP_temperature;BMP_pressure;BME280_temperature;BME280_humidity;BME280_pressure;Samples;Min_cycle;Max_cycle;Signal;HPM_P1;HPM_P2
2023/06/04 00:00:25;;;;;;;6.38;2.15;;;13.10;99.90;;;;;;5021468;28;20444;-80
2023/06/04 00:02:50;;;;;;;8.80;2.60;;;13.10;99.90;;;;;;5023328;28;20037;-79
2023/06/04 00:05:16;;;;;;;5.13;2.40;;;13.10;99.90;;;;;;5020041;28;20046;-79
2023/06/04 00:07:41;;;;;;;4.65;2.00;;;13.10;99.90;;;;;;5026851;28;20034;-79
2023/06/04 00:10:07;;;;;;;6.28;2.20;;;13.00;99.90;;;;;;5018119;28;20044;-78
2023/06/04 00:12:33;;;;;;;6.25;2.08;;;12.90;99.90;;;;;;5023747;28;20041;-78
2023/06/04 00:14:58;;;;;;;7.18;2.38;;;12.90;99.90;;;;;;5018025;28;20056;-79
2023/06/04 00:17:24;;;;;;;6.18;2.00;;;12.90;99.90;;;;;;5017477;28;20034;-78
2023/06/04 00:19:49;;;;;;;5.47;2.40;;;12.80;99.90;;;;;;5022647;28;20033;-80
2023/06/04 00:22:15;;;;;;;6.90;2.50;;;12.80;99.90;;;;;;5021562;28;20497;-79
2023/06/04 00:24:40;;;;;;;5.28;2.10;;;12.80;99.90;;;;;;5027199;28;20124;-79
2023/06/04 00:27:08;;;;;;;5.20;2.33;;;12.70;99.90;;;;;;5017493;28;20120;-78
2023/06/04 00:29:33;;;;;;;5.78;2.17;;;12.70;99.90;;;;;;5021837;28;20075;-79
2023/06/04 00:31:59;;;;;;;6.43;2.28;;;12.70;99.90;;;;;;5022598;28;20060;-79
2023/06/04 00:34:25;;;;;;;7.78;2.33;;;12.70;99.90;;;;;;5034819;28;20092;-79
2023/06/04 00:36:50;;;;;;;4.07;2.25;;;12.70;99.90;;;;;;5022428;28;21626;-79
2023/06/04 00:39:16;;;;;;;5.35;1.90;;;12.60;99.90;;;;;;5003573;28;20068;-78
2023/06/04 00:41:41;;;;;;;6.20;2.55;;;12.50;99.90;;;;;;5026576;28;20631;-76
2023/06/04 00:44:07;;;;;;;6.25;2.40;;;12.40;99.90;;;;;;5016078;28;20514;-79
2023/06/04 00:46:35;;;;;;;6.38;2.47;;;12.40;99.90;;;;;;5001259;28;20033;-78
2023/06/04 00:49:01;;;;;;;6.55;2.35;;;12.30;99.90;;;;;;5029544;28;20034;-79
2023/06/04 00:51:30;;;;;;;6.18;2.17;;;12.30;99.90;;;;;;5027429;28;20048;-79
2023/06/04 00:53:55;;;;;;;6.72;2.67;;;12.30;99.90;;;;;;5026785;28;20407;-79
2023/06/04 00:56:21;;;;;;;3.60;1.83;;;12.20;99.90;;;;;;5004934;28;20037;-76
2023/06/04 00:58:47;;;;;;;5.03;2.20;;;12.10;99.90;;;;;;5037671;28;20076;-78
2023/06/04 01:01:30;;;;;;;6.25;2.13;;;12.10;99.90;;;;;;5040678;28;20095;-78
2023/06/04 01:03:59;;;;;;;5.05;1.95;;;12.00;99.90;;;;;;5018752;28;20033;-79
2023/06/04 01:06:35;;;;;;;4.93;2.05;;;11.90;99.90;;;;;;5027499;28;20041;-79
2023/06/04 01:09:01;;;;;;;7.00;2.20;;;11.90;99.90;;;;;;5016607;28;20034;-79
2023/06/04 01:11:38;;;;;;;7.93;2.30;;;11.80;99.90;;;;;;5020460;28;20456;-79
2023/06/04 01:14:08;;;;;;;6.28;2.15;;;11.80;99.90;;;;;;5018967;28;20052;-78
2023/06/04 01:16:48;;;;;;;6.13;2.20;;;11.70;99.90;;;;;;5024292;28;20623;-78
2023/06/04 01:19:59;;;;;;;4.32;1.77;;;11.60;99.90;;;;;;5024486;28;20143;-78
2023/06/04 01:22:43;;;;;;;5.00;2.10;;;11.50;99.90;;;;;;5017682;28;20046;-79
2023/06/04 01:25:26;;;;;;;6.28;2.58;;;11.40;99.90;;;;;;5028421;28;20129;-77
2023/06/04 01:27:55;;;;;;;4.35;2.45;;;11.40;99.90;;;;;;5018152;28;20025;-79
2023/06/04 01:30:35;;;;;;;5.88;2.40;;;11.50;99.90;;;;;;5022315;28;20029;-78
2023/06/04 01:33:02;;;;;;;4.53;2.22;;;11.40;99.90;;;;;;5023518;28;20037;-77
2023/06/04 01:35:31;;;;;;;4.43;2.50;;;11.30;99.90;;;;;;5020300;28;20041;-79
2023/06/04 01:37:56;;;;;;;6.53;2.47;;;11.30;99.90;;;;;;5019787;28;20049;-79
2023/06/04 01:40:23;;;;;;;6.40;2.40;;;11.20;99.90;;;;;;5019798;28;20030;-79
2023/06/04 01:42:48;;;;;;;6.05;2.40;;;11.10;99.90;;;;;;5018993;28;20034;-79
2023/06/04 01:45:14;;;;;;;4.22;2.28;;;11.10;99.90;;;;;;5025636;28;20550;-79
2023/06/04 01:47:40;;;;;;;6.80;2.65;;;11.10;99.90;;;;;;5021454;28;20084;-78
2023/06/04 01:50:09;;;;;;;4.15;2.20;;;11.00;99.90;;;;;;5026842;28;20037;-79
2023/06/04 01:52:36;;;;;;;6.00;2.67;;;11.00;99.90;;;;;;5018411;28;20052;-79
2023/06/04 01:55:02;;;;;;;5.50;2.50;;;10.90;99.90;;;;;;5029426;28;20052;-79
2023/06/04 01:57:28;;;;;;;4.32;2.17;;;10.80;99.90;;;;;;5026050;28;20038;-79
2023/06/04 01:59:53;;;;;;;4.00;2.30;;;10.80;99.90;;;;;;5017041;28;20048;-80
2023/06/04 02:02:19;;;;;;;5.32;2.67;;;10.80;99.90;;;;;;5020691;28;20052;-80
2023/06/04 02:04:46;;;;;;;5.60;2.90;;;10.80;99.90;;;;;;5016344;28;20494;-80
2023/06/04 02:07:17;;;;;;;4.22;2.38;;;10.80;99.90;;;;;;5019509;28;20120;-78
2023/06/04 02:09:43;;;;;;;4.43;2.70;;;10.80;99.90;;;;;;5023154;28;20048;-79
2023/06/04 02:12:08;;;;;;;4.95;2.55;;;10.80;99.90;;;;;;5030000;28;20045;-80
2023/06/04 02:14:34;;;;;;;5.00;2.85;;;10.70;99.90;;;;;;5024663;28;20033;-80
2023/06/04 02:16:59;;;;;;;4.57;2.58;;;10.70;99.90;;;;;;5023257;28;20068;-76
2023/06/04 02:19:28;;;;;;;4.78;2.60;;;10.70;99.90;;;;;;5023890;28;20069;-79
2023/06/04 02:21:54;;;;;;;4.03;2.47;;;10.60;99.90;;;;;;5018094;28;20038;-80
2023/06/04 02:24:20;;;;;;;3.88;2.38;;;10.50;99.90;;;;;;5028153;28;21447;-80
2023/06/04 02:26:46;;;;;;;3.13;1.95;;;10.50;99.90;;;;;;5028037;28;20072;-80
2023/06/04 02:29:12;;;;;;;3.00;2.33;;;10.50;99.90;;;;;;5022448;28;20458;-80
2023/06/04 02:31:37;;;;;;;3.03;2.05;;;10.40;99.90;;;;;;5022143;28;20088;-79
2023/06/04 02:34:03;;;;;;;3.70;1.70;;;10.40;99.90;;;;;;5046663;28;20041;-79
2023/06/04 02:36:30;;;;;;;2.80;1.80;;;10.40;99.90;;;;;;5023003;28;20030;-79
2023/06/04 02:38:55;;;;;;;2.15;1.88;;;10.30;99.90;;;;;;5018198;28;20044;-80
2023/06/04 02:41:22;;;;;;;3.60;1.67;;;10.20;99.90;;;;;;5023002;28;20029;-80
2023/06/04 02:43:47;;;;;;;3.20;2.08;;;10.20;99.90;;;;;;5028738;28;20056;-80
2023/06/04 02:46:13;;;;;;;2.15;1.90;;;10.10;99.90;;;;;;5026287;28;20033;-80
2023/06/04 02:48:38;;;;;;;2.95;1.80;;;10.10;99.90;;;;;;5021362;28;20052;-79
2023/06/04 02:51:05;;;;;;;2.20;2.00;;;10.00;99.90;;;;;;5019464;28;20042;-80
2023/06/04 02:53:30;;;;;;;3.63;2.05;;;10.00;99.90;;;;;;5025820;28;20038;-79
2023/06/04 02:55:56;;;;;;;3.13;2.00;;;9.80;99.90;;;;;;5028626;28;20043;-79
2023/06/04 02:58:24;;;;;;;3.90;2.60;;;9.80;99.90;;;;;;5031200;28;20064;-79
2023/06/04 03:00:52;;;;;;;4.40;2.38;;;9.70;99.90;;;;;;5029812;28;20120;-80
2023/06/04 03:03:18;;;;;;;4.22;2.55;;;9.70;99.90;;;;;;5020421;28;20041;-80
2023/06/04 03:05:43;;;;;;;4.10;2.90;;;9.50;99.90;;;;;;5025726;28;20034;-80
2023/06/04 03:08:09;;;;;;;3.33;2.53;;;9.40;99.90;;;;;;5015803;28;20033;-79
2023/06/04 03:10:34;;;;;;;4.20;2.92;;;9.40;99.90;;;;;;5022242;28;20063;-80
2023/06/04 03:13:00;;;;;;;5.88;3.00;;;9.40;99.90;;;;;;5039182;28;20464;-78
2023/06/04 03:15:25;;;;;;;4.53;3.00;;;9.40;99.90;;;;;;5018179;28;20042;-80
2023/06/04 03:17:51;;;;;;;4.07;3.33;;;9.40;99.90;;;;;;5021288;28;20560;-80
2023/06/04 03:20:17;;;;;;;4.53;2.90;;;9.50;99.90;;;;;;5010333;28;20397;-81
2023/06/04 03:22:42;;;;;;;5.32;3.08;;;9.60;99.90;;;;;;5013595;28;20034;-81
2023/06/04 03:25:08;;;;;;;4.63;3.30;;;9.60;99.90;;;;;;5021365;28;20409;-80
2023/06/04 03:27:34;;;;;;;3.45;2.72;;;9.60;99.90;;;;;;5017018;28;20084;-81
2023/06/04 03:30:00;;;;;;;4.28;2.92;;;9.60;99.90;;;;;;5025669;28;20509;-77
2023/06/04 03:32:25;;;;;;;3.80;3.00;;;9.70;99.90;;;;;;5016306;28;20037;-79
2023/06/04 03:34:51;;;;;;;3.88;2.63;;;9.70;99.90;;;;;;5021442;28;20040;-81
2023/06/04 03:37:17;;;;;;;3.63;2.60;;;9.80;99.90;;;;;;5019346;28;20408;-81
2023/06/04 03:39:42;;;;;;;3.65;2.42;;;9.70;99.90;;;;;;5017908;28;20051;-80
2023/06/04 03:42:08;;;;;;;5.85;2.88;;;9.70;99.90;;;;;;5018986;28;20038;-81
2023/06/04 03:44:33;;;;;;;4.05;2.80;;;9.60;99.90;;;;;;5017836;28;20025;-81
2023/06/04 03:46:59;;;;;;;5.57;3.00;;;9.50;99.90;;;;;;5022687;28;20033;-81
2023/06/04 03:49:25;;;;;;;4.90;3.05;;;9.40;99.90;;;;;;5018248;28;20120;-80
2023/06/04 03:51:50;;;;;;;5.35;3.05;;;9.40;99.90;;;;;;5017150;28;20050;-80
2023/06/04 03:54:19;;;;;;;3.75;2.67;;;9.50;99.90;;;;;;5027502;28;20075;-80
2023/06/04 03:56:45;;;;;;;4.13;3.20;;;9.50;99.90;;;;;;5031960;28;20172;-80
2023/06/04 03:59:11;;;;;;;3.88;2.90;;;9.50;99.90;;;;;;5017163;28;20038;-80
2023/06/04 04:01:36;;;;;;;4.07;2.85;;;9.50;99.90;;;;;;5015906;28;20095;-81
2023/06/04 04:04:02;;;;;;;4.72;2.70;;;9.50;99.90;;;;;;5018689;28;20037;-80
2023/06/04 04:06:27;;;;;;;4.35;2.70;;;9.50;99.90;;;;;;5028856;28;20041;-81
2023/06/04 04:08:53;;;;;;;3.15;2.70;;;9.50;99.90;;;;;;5024812;28;20038;-81
2023/06/04 04:11:18;;;;;;;2.80;2.53;;;9.40;99.90;;;;;;5019102;28;20041;-80
2023/06/04 04:13:45;;;;;;;3.45;2.38;;;9.40;99.90;;;;;;5022229;28;20037;-80
2023/06/04 04:16:10;;;;;;;4.13;2.38;;;9.50;99.90;;;;;;5029699;28;20106;-81
2023/06/04 04:18:36;;;;;;;4.80;2.45;;;9.60;99.90;;;;;;5027106;28;20089;-80
2023/06/04 04:21:03;;;;;;;6.53;2.67;;;9.60;99.90;;;;;;5023624;28;20038;-81
2023/06/04 04:23:29;;;;;;;4.40;2.67;;;9.70;99.90;;;;;;5016874;28;20037;-82
2023/06/04 04:25:58;;;;;;;4.45;2.45;;;9.80;99.90;;;;;;5017764;28;20037;-81
2023/06/04 04:28:28;;;;;;;4.45;2.65;;;9.80;99.90;;;;;;5024087;28;20062;-81
2023/06/04 04:30:56;;;;;;;4.25;3.10;;;9.80;99.90;;;;;;5021325;28;20117;-81
2023/06/04 04:33:25;;;;;;;5.63;2.58;;;9.90;99.90;;;;;;5018800;28;20042;-82
2023/06/04 04:35:52;;;;;;;5.53;2.97;;;10.00;99.90;;;;;;5025688;28;20041;-81
2023/06/04 04:38:19;;;;;;;4.50;2.38;;;10.10;99.90;;;;;;5022905;28;20052;-81
2023/06/04 04:40:47;;;;;;;4.38;2.95;;;10.10;99.90;;;;;;5018243;28;20456;-81
2023/06/04 04:43:13;;;;;;;6.38;3.17;;;10.20;99.90;;;;;;5018121;28;20088;-81
2023/06/04 04:45:39;;;;;;;5.45;2.78;;;10.20;99.90;;;;;;5018968;28;20144;-81
2023/06/04 04:48:04;;;;;;;5.05;3.10;;;10.40;99.90;;;;;;5015992;28;20065;-81
2023/06/04 04:50:31;;;;;;;8.38;3.30;;;10.50;99.90;;;;;;5027684;28;20724;-82
2023/06/04 04:52:57;;;;;;;5.50;2.88;;;10.50;99.90;;;;;;5020918;28;20045;-80
2023/06/04 04:55:23;;;;;;;5.93;3.00;;;10.60;99.90;;;;;;5019670;28;20041;-81
2023/06/04 04:57:48;;;;;;;3.78;2.70;;;10.70;99.90;;;;;;5021914;28;20038;-81
2023/06/04 05:00:15;;;;;;;6.90;3.28;;;10.80;99.90;;;;;;5019049;28;20088;-81
2023/06/04 05:02:41;;;;;;;6.25;3.33;;;11.00;99.90;;;;;;5028141;28;20459;-81
2023/06/04 05:05:06;;;;;;;6.78;4.00;;;11.00;99.90;;;;;;5019780;28;20072;-81
2023/06/04 05:07:32;;;;;;;7.03;3.55;;;11.10;99.90;;;;;;5013165;28;20470;-81
2023/06/04 05:09:58;;;;;;;6.60;3.38;;;11.20;99.90;;;;;;5022357;28;20042;-80
2023/06/04 05:12:26;;;;;;;6.10;3.85;;;11.40;99.90;;;;;;5022119;28;20169;-81
2023/06/04 05:14:52;;;;;;;5.43;3.63;;;11.60;99.90;;;;;;5015769;28;20049;-81
2023/06/04 05:17:21;;;;;;;7.68;3.65;;;11.80;99.90;;;;;;5023451;28;20481;-82
2023/06/04 05:19:47;;;;;;;7.13;4.13;;;12.00;99.90;;;;;;5021986;28;20048;-81
2023/06/04 05:22:15;;;;;;;8.10;4.65;;;12.10;99.90;;;;;;5018831;28;20037;-82
2023/06/04 05:24:41;;;;;;;9.32;5.68;;;12.20;99.90;;;;;;5013848;28;20033;-81
2023/06/04 05:27:09;;;;;;;8.13;4.65;;;12.20;99.90;;;;;;5012932;28;20064;-81
2023/06/04 05:29:34;;;;;;;6.40;4.88;;;12.40;99.90;;;;;;5023235;28;20041;-81
2023/06/04 05:32:00;;;;;;;9.32;5.70;;;12.50;99.90;;;;;;5018720;28;20122;-81
2023/06/04 05:34:26;;;;;;;8.63;5.57;;;12.60;99.90;;;;;;5019675;28;20045;-81
2023/06/04 05:36:52;;;;;;;11.48;5.82;;;12.80;99.90;;;;;;5027129;28;20045;-80
2023/06/04 05:39:18;;;;;;;9.50;5.93;;;12.90;99.90;;;;;;5016523;28;20566;-80
2023/06/04 05:41:45;;;;;;;11.32;5.97;;;13.20;99.90;;;;;;5010818;28;20038;-80
2023/06/04 05:44:10;;;;;;;13.30;5.50;;;13.40;99.90;;;;;;5022528;28;20081;-80
2023/06/04 05:46:36;;;;;;;8.43;4.82;;;13.50;99.90;;;;;;5024298;28;20539;-79
2023/06/04 05:49:02;;;;;;;12.65;4.70;;;13.70;99.90;;;;;;5035513;28;20041;-78
2023/06/04 05:51:28;;;;;;;8.32;3.88;;;13.80;99.90;;;;;;5024921;28;20040;-78
2023/06/04 05:53:54;;;;;;;10.90;4.05;;;14.00;99.90;;;;;;5041628;28;20038;-78
2023/06/04 05:56:21;;;;;;;9.75;3.75;;;14.10;99.90;;;;;;5017881;28;21064;-79
2023/06/04 05:58:52;;;;;;;8.07;3.65;;;14.20;99.90;;;;;;5017162;28;20072;-79
2023/06/04 06:01:17;;;;;;;6.55;3.33;;;14.30;99.90;;;;;;5019284;28;20092;-78
2023/06/04 06:03:43;;;;;;;5.88;2.55;;;14.40;99.90;;;;;;5028512;28;20065;-78
2023/06/04 06:06:10;;;;;;;5.88;2.63;;;14.50;99.90;;;;;;5042051;28;20514;-78
2023/06/04 06:08:35;;;;;;;7.70;2.53;;;14.50;99.90;;;;;;5027768;28;20113;-79
2023/06/04 06:11:04;;;;;;;5.28;2.22;;;14.60;99.90;;;;;;5030248;28;20124;-77
2023/06/04 06:13:29;;;;;;;8.90;3.17;;;14.70;99.90;;;;;;5032820;28;20037;-78
2023/06/04 06:15:55;;;;;;;6.32;2.28;;;14.70;99.90;;;;;;5032270;28;20044;-78
2023/06/04 06:18:21;;;;;;;5.15;2.17;;;14.80;99.90;;;;;;5031621;28;20474;-77
2023/06/04 06:20:46;;;;;;;5.45;2.20;;;14.90;99.90;;;;;;5018195;28;20144;-78
2023/06/04 06:23:12;;;;;;;6.95;2.10;;;15.00;99.90;;;;;;5026996;28;20405;-80
2023/06/04 06:25:40;;;;;;;6.90;2.15;;;15.20;99.90;;;;;;5042551;28;20106;-79
2023/06/04 06:28:06;;;;;;;4.70;2.13;;;15.20;99.90;;;;;;5033445;28;20045;-80
2023/06/04 06:30:32;;;;;;;5.28;2.10;;;15.30;99.90;;;;;;5044007;28;20488;-80
2023/06/04 06:32:57;;;;;;;8.18;1.80;;;15.40;99.90;;;;;;5050237;28;20079;-80
2023/06/04 06:35:23;;;;;;;5.30;1.80;;;15.50;99.90;;;;;;5032477;28;20043;-79
2023/06/04 06:37:48;;;;;;;4.75;1.80;;;15.60;99.90;;;;;;5032613;28;20041;-80
2023/06/04 06:40:14;;;;;;;7.40;1.85;;;15.60;99.90;;;;;;5029445;28;20045;-80
2023/06/04 06:42:40;;;;;;;6.40;2.10;;;15.80;99.90;;;;;;5025243;28;20536;-80
2023/06/04 06:45:06;;;;;;;4.85;2.00;;;15.80;99.90;;;;;;5028547;28;20038;-80
2023/06/04 06:47:31;;;;;;;5.95;2.63;;;15.90;99.90;;;;;;5041230;28;20037;-79
2023/06/04 06:49:57;;;;;;;5.50;2.13;;;16.00;99.90;;;;;;5049660;28;20441;-78
2023/06/04 06:52:22;;;;;;;6.38;2.80;;;16.00;99.90;;;;;;5021175;28;20124;-80
2023/06/04 06:54:48;;;;;;;6.63;2.55;;;16.10;99.90;;;;;;5024775;28;20052;-79
2023/06/04 06:57:15;;;;;;;5.50;2.22;;;16.10;99.90;;;;;;5032543;28;20052;-80
2023/06/04 06:59:40;;;;;;;5.93;2.47;;;16.20;99.90;;;;;;5047030;28;20500;-80
2023/06/04 07:02:07;;;;;;;6.78;2.30;;;16.30;99.90;;;;;;5026434;28;20042;-78
2023/06/04 07:04:32;;;;;;;6.13;2.20;;;16.30;99.90;;;;;;5028243;28;20041;-79
2023/06/04 07:06:58;;;;;;;6.07;2.63;;;16.40;99.90;;;;;;5042246;28;21758;-79
2023/06/04 07:09:23;;;;;;;10.38;2.33;;;16.50;99.90;;;;;;5025617;28;20520;-79
2023/06/04 07:11:49;;;;;;;6.97;2.60;;;16.60;99.90;;;;;;5027861;28;20087;-79
2023/06/04 07:14:14;;;;;;;7.38;2.45;;;16.70;99.90;;;;;;5027904;28;20048;-79
2023/06/04 07:16:40;;;;;;;6.22;1.98;;;16.90;99.90;;;;;;5029449;28;20045;-79
2023/06/04 07:19:05;;;;;;;4.82;1.60;;;17.00;99.90;;;;;;5031261;28;20051;-79
2023/06/04 07:21:31;;;;;;;5.82;1.95;;;17.00;99.90;;;;;;5028635;28;20037;-79
2023/06/04 07:23:56;;;;;;;6.20;1.67;;;17.10;99.90;;;;;;5018582;28;20513;-78
2023/06/04 07:26:22;;;;;;;4.93;1.77;;;17.20;99.90;;;;;;5006781;28;20077;-79
2023/06/04 07:28:47;;;;;;;3.40;1.70;;;17.20;99.90;;;;;;5027953;28;20492;-79
2023/06/04 07:31:17;;;;;;;5.18;1.73;;;17.30;99.90;;;;;;5031433;28;20045;-79
2023/06/04 07:33:43;;;;;;;3.45;1.40;;;17.40;99.90;;;;;;5032183;28;20047;-79
2023/06/04 07:36:15;;;;;;;5.88;1.98;;;17.50;99.90;;;;;;5030991;28;20041;-79
2023/06/04 07:38:41;;;;;;;6.43;2.05;;;17.50;99.90;;;;;;5027936;28;20076;-79
2023/06/04 07:41:07;;;;;;;6.63;1.80;;;17.60;99.90;;;;;;5029930;28;20064;-77
2023/06/04 07:43:36;;;;;;;7.25;1.90;;;17.80;99.90;;;;;;5029580;28;20096;-79
2023/06/04 07:46:05;;;;;;;4.00;1.48;;;17.80;99.90;;;;;;5031456;28;20029;-77
2023/06/04 07:48:31;;;;;;;3.88;1.80;;;17.90;99.90;;;;;;5031721;28;20073;-78
2023/06/04 07:51:00;;;;;;;5.47;1.83;;;18.00;99.90;;;;;;5048631;28;20076;-78
2023/06/04 07:53:26;;;;;;;6.38;1.70;;;18.10;99.90;;;;;;5048588;28;20049;-78
2023/06/04 07:55:53;;;;;;;4.63;1.85;;;18.10;99.90;;;;;;5031782;28;20048;-78
2023/06/04 07:58:18;;;;;;;6.82;1.67;;;18.20;99.90;;;;;;5029483;28;20045;-79
2023/06/04 08:00:44;;;;;;;4.45;2.00;;;18.30;99.90;;;;;;5030910;28;20091;-78
2023/06/04 08:03:10;;;;;;;3.85;1.60;;;18.40;99.90;;;;;;5024734;28;20038;-79
2023/06/04 08:05:36;;;;;;;4.63;1.60;;;18.40;99.90;;;;;;5048003;28;20044;-79
2023/06/04 08:08:02;;;;;;;3.65;1.48;;;18.50;99.90;;;;;;5021175;28;20025;-78
2023/06/04 08:10:28;;;;;;;4.80;1.73;;;18.70;99.90;;;;;;5022706;28;20087;-78
2023/06/04 08:12:53;;;;;;;4.22;1.30;;;18.70;99.90;;;;;;5046127;28;20535;-78
2023/06/04 08:15:19;;;;;;;4.90;1.90;;;18.70;99.90;;;;;;5018980;28;20069;-79
2023/06/04 08:17:45;;;;;;;2.55;1.52;;;18.80;99.90;;;;;;5037431;28;20480;-78
2023/06/04 08:20:11;;;;;;;8.45;1.63;;;18.80;99.90;;;;;;5047887;28;20136;-79
2023/06/04 08:22:36;;;;;;;3.83;1.23;;;18.70;99.90;;;;;;5047386;28;20038;-79
2023/06/04 08:25:03;;;;;;;4.25;1.50;;;18.80;99.90;;;;;;5031189;28;20483;-79
2023/06/04 08:27:29;;;;;;;4.13;1.33;;;18.90;99.90;;;;;;5021805;28;20036;-79
2023/06/04 08:29:55;;;;;;;4.68;1.77;;;18.90;99.90;;;;;;5021638;28;20034;-78
2023/06/04 08:32:20;;;;;;;3.92;1.52;;;19.00;99.90;;;;;;5046496;28;20057;-79
2023/06/04 08:34:46;;;;;;;4.82;1.60;;;19.00;99.90;;;;;;5022060;28;20095;-77
2023/06/04 08:37:11;;;;;;;3.65;1.65;;;19.00;99.90;;;;;;5039358;28;20047;-78
2023/06/04 08:39:37;;;;;;;4.18;1.60;;;19.10;99.90;;;;;;5044236;28;20065;-78
2023/06/04 08:42:32;;;;;;;4.85;1.58;;;19.10;99.90;;;;;;5022690;28;20041;-78
2023/06/04 08:44:58;;;;;;;7.13;1.60;;;19.20;99.90;;;;;;5027952;28;20045;-78
2023/06/04 08:47:28;;;;;;;5.45;1.75;;;19.30;99.90;;;;;;5016316;28;20040;-79
2023/06/04 08:49:58;;;;;;;5.80;1.52;;;19.20;99.90;;;;;;5030415;28;20439;-79
2023/06/04 08:52:25;;;;;;;5.55;2.03;;;19.30;99.90;;;;;;5032293;28;20036;-78
2023/06/04 08:54:52;;;;;;;5.85;1.92;;;19.30;99.90;;;;;;5030227;28;20485;-78
2023/06/04 08:57:21;;;;;;;5.93;2.08;;;19.30;99.90;;;;;;5004085;28;20042;-79
2023/06/04 08:59:47;;;;;;;5.55;1.92;;;19.30;99.90;;;;;;5020307;28;20045;-78
2023/06/04 09:02:14;;;;;;;3.30;1.35;;;19.40;99.90;;;;;;5022952;28;20672;-78
2023/06/04 09:04:40;;;;;;;5.22;1.90;;;19.30;99.90;;;;;;5020012;28;20404;-79
2023/06/04 09:07:08;;;;;;;5.05;1.63;;;19.10;99.90;;;;;;5036090;28;20521;-78
2023/06/04 09:09:38;;;;;;;6.43;1.60;;;19.20;99.90;;;;;;5019739;28;20378;-79
2023/06/04 09:12:06;;;;;;;6.60;2.15;;;19.20;99.90;;;;;;5029342;28;20072;-79
2023/06/04 09:14:32;;;;;;;6.43;1.63;;;19.30;99.90;;;;;;5048888;28;20501;-79
2023/06/04 09:16:58;;;;;;;4.60;1.65;;;19.30;99.90;;;;;;5049473;28;20047;-79
2023/06/04 09:19:24;;;;;;;4.07;1.38;;;19.30;99.90;;;;;;5047470;28;20077;-79
2023/06/04 09:21:51;;;;;;;4.15;1.60;;;19.30;99.90;;;;;;5048025;28;20091;-78
2023/06/04 09:24:17;;;;;;;5.18;1.52;;;19.30;99.90;;;;;;5048949;28;20432;-80
2023/06/04 09:26:42;;;;;;;3.38;1.40;;;19.40;99.90;;;;;;5047906;28;20128;-79
2023/06/04 09:29:08;;;;;;;3.42;1.50;;;19.30;99.90;;;;;;5030931;28;20033;-78
2023/06/04 09:31:36;;;;;;;4.15;1.40;;;19.40;99.90;;;;;;5030013;28;20056;-78
2023/06/04 09:34:03;;;;;;;5.55;1.55;;;19.40;99.90;;;;;;5030834;28;20044;-78
2023/06/04 09:36:33;;;;;;;5.82;1.55;;;19.50;99.90;;;;;;5031250;28;20060;-78
2023/06/04 09:38:58;;;;;;;4.38;1.42;;;19.60;99.90;;;;;;5038032;28;20095;-78
2023/06/04 09:41:25;;;;;;;2.97;1.50;;;19.60;99.90;;;;;;5019181;28;20521;-79
2023/06/04 09:43:59;;;;;;;3.95;1.30;;;19.50;99.90;;;;;;5027073;28;20033;-78
2023/06/04 09:46:25;;;;;;;;;;;19.40;99.90;;;;;;5031161;28;20038;-78
2023/06/04 09:49:02;;;;;;;4.15;1.40;;;19.40;99.90;;;;;;5027869;28;19948;-77
2023/06/04 09:51:29;;;;;;;4.15;1.38;;;19.50;99.90;;;;;;5033735;28;20040;-78
2023/06/04 09:54:02;;;;;;;3.42;1.90;;;19.50;99.90;;;;;;5032943;28;20051;-75
2023/06/04 09:56:28;;;;;;;4.50;1.83;;;19.60;99.90;;;;;;5033055;28;20447;-75
2023/06/04 09:59:00;;;;;;;7.82;1.83;;;19.50;99.90;;;;;;5033138;28;20037;-75
2023/06/04 10:01:28;;;;;;;2.70;1.40;;;19.60;99.90;;;;;;5024484;28;20386;-75
2023/06/04 10:03:56;;;;;;;5.10;1.58;;;19.70;99.90;;;;;;5033038;28;20037;-75
2023/06/04 10:06:22;;;;;;;3.78;1.38;;;19.70;99.90;;;;;;5048054;28;20081;-78
2023/06/04 10:08:49;;;;;;;3.67;1.30;;;19.80;99.90;;;;;;5023264;28;20037;-77
2023/06/04 10:11:22;;;;;;;4.13;1.50;;;19.80;99.90;;;;;;5029665;28;20035;-77
2023/06/04 10:14:01;;;;;;;4.15;1.40;;;19.90;99.90;;;;;;5033007;28;20037;-77
2023/06/04 10:16:28;;;;;;;5.10;1.58;;;20.00;99.90;;;;;;5025534;28;20041;-76
2023/06/04 10:18:55;;;;;;;4.32;1.20;;;20.00;99.90;;;;;;5045401;28;20045;-77
2023/06/04 10:21:20;;;;;;;3.63;1.48;;;20.10;99.90;;;;;;5031787;28;20053;-77
2023/06/04 10:23:46;;;;;;;5.57;1.90;;;20.00;99.90;;;;;;5029388;28;20566;-77
2023/06/04 10:26:15;;;;;;;4.00;1.70;;;19.90;99.90;;;;;;5027234;28;20547;-76
2023/06/04 10:28:42;;;;;;;3.30;1.48;;;20.00;99.90;;;;;;5027359;28;20038;-76
2023/06/04 10:31:11;;;;;;;4.22;1.50;;;20.10;99.90;;;;;;5030962;28;20520;-75
2023/06/04 10:33:39;;;;;;;4.65;1.40;;;20.20;99.90;;;;;;5028806;28;20045;-73
2023/06/04 10:36:21;;;;;;;4.32;1.50;;;20.20;99.90;;;;;;5013846;28;20477;-75
2023/06/04 10:38:49;;;;;;;3.15;1.30;;;20.20;99.90;;;;;;5028915;28;20053;-74
2023/06/04 10:41:16;;;;;;;2.90;1.50;;;20.10;99.90;;;;;;5025762;28;20045;-74
2023/06/04 10:43:43;;;;;;;3.63;1.58;;;20.10;99.90;;;;;;5027602;28;20520;-73
2023/06/04 10:46:15;;;;;;;4.80;1.45;;;20.30;99.90;;;;;;5031946;28;20582;-73
2023/06/04 10:48:51;;;;;;;3.50;1.50;;;20.40;99.90;;;;;;5031888;28;20115;-73
2023/06/04 10:51:30;;;;;;;4.22;1.50;;;20.20;99.90;;;;;;5030513;28;20045;-72
2023/06/04 10:53:57;;;;;;;3.83;1.35;;;20.40;99.90;;;;;;5028334;28;20041;-73
2023/06/04 10:56:27;;;;;;;4.40;1.50;;;20.20;99.90;;;;;;5019712;28;20065;-73
2023/06/04 10:58:53;;;;;;;2.60;1.20;;;20.40;99.90;;;;;;5035678;28;20034;-73
2023/06/04 11:01:28;;;;;;;9.82;2.13;;;20.50;99.90;;;;;;5027647;28;20099;-75
2023/06/04 11:03:55;;;;;;;2.65;1.40;;;20.40;99.90;;;;;;5027439;28;20112;-74
2023/06/04 11:06:22;;;;;;;3.65;1.67;;;20.50;99.90;;;;;;5031721;28;20098;-73
2023/06/04 11:08:48;;;;;;;4.43;1.50;;;20.60;99.90;;;;;;5043021;28;20052;-73
2023/06/04 11:11:15;;;;;;;3.50;1.25;;;20.80;99.90;;;;;;5027253;28;20029;-74
2023/06/04 11:13:41;;;;;;;3.58;1.40;;;21.00;99.90;;;;;;5019037;28;20030;-73
2023/06/04 11:16:17;;;;;;;2.78;0.90;;;21.10;99.90;;;;;;5048281;28;20056;-72
2023/06/04 11:18:43;;;;;;;3.05;1.30;;;21.30;99.90;;;;;;5048092;28;20104;-73
2023/06/04 11:21:11;;;;;;;4.32;1.60;;;21.40;99.90;;;;;;5028107;28;20619;-74
2023/06/04 11:23:36;;;;;;;4.60;1.40;;;21.50;99.90;;;;;;5024580;28;20182;-73
2023/06/04 11:26:02;;;;;;;5.88;1.25;;;21.50;99.90;;;;;;5047898;28;20116;-74
2023/06/04 11:28:28;;;;;;;2.22;1.10;;;21.60;99.90;;;;;;5029760;28;20108;-73
2023/06/04 11:31:02;;;;;;;3.38;1.35;;;21.80;99.90;;;;;;5045122;28;20037;-74
2023/06/04 11:33:28;;;;;;;2.75;1.27;;;21.70;99.40;;;;;;5028369;28;20042;-72
2023/06/04 11:35:54;;;;;;;4.47;1.55;;;21.60;99.90;;;;;;5040300;28;20117;-73
2023/06/04 11:38:20;;;;;;;3.05;1.48;;;21.80;99.90;;;;;;5028855;28;20124;-72
2023/06/04 11:41:05;;;;;;;4.05;1.50;;;22.00;99.90;;;;;;5029318;28;20043;-74
2023/06/04 11:43:32;;;;;;;4.47;1.40;;;22.30;99.90;;;;;;5019308;28;20113;-73
2023/06/04 11:45:58;;;;;;;3.38;1.20;;;22.40;99.90;;;;;;5040907;28;20065;-73
2023/06/04 11:48:23;;;;;;;3.17;1.60;;;22.50;99.90;;;;;;5047449;28;20504;-75
2023/06/04 11:50:49;;;;;;;3.95;1.65;;;22.40;99.30;;;;;;5024306;28;20481;-73
2023/06/04 11:53:15;;;;;;;2.67;1.58;;;22.30;99.40;;;;;;5027826;28;20069;-74
2023/06/04 11:55:41;;;;;;;2.60;1.33;;;22.50;99.40;;;;;;5001863;28;20041;-74
2023/06/04 11:58:07;;;;;;;3.05;1.38;;;22.50;99.10;;;;;;5023069;28;20032;-76
2023/06/04 12:00:32;;;;;;;3.90;1.50;;;22.80;99.30;;;;;;5044475;28;20374;-75
2023/06/04 12:02:59;;;;;;;4.57;1.40;;;23.00;99.20;;;;;;5037315;28;20041;-76
2023/06/04 12:05:30;;;;;;;3.80;1.45;;;23.20;99.30;;;;;;5020923;28;20052;-74
2023/06/04 12:08:11;;;;;;;4.70;1.40;;;23.50;97.10;;;;;;5042171;28;20129;-75
2023/06/04 12:10:38;;;;;;;6.13;1.40;;;23.40;97.90;;;;;;5027164;28;20037;-75
2023/06/04 12:13:04;;;;;;;3.63;1.30;;;23.60;98.40;;;;;;5019479;28;20034;-74
2023/06/04 12:15:29;;;;;;;3.88;1.40;;;23.10;97.70;;;;;;5016411;28;20085;-77
2023/06/04 12:17:55;;;;;;;2.97;1.20;;;23.20;97.90;;;;;;5012855;28;20481;-76
2023/06/04 12:20:41;;;;;;;3.28;1.23;;;23.40;98.10;;;;;;5028342;28;20081;-75
2023/06/04 12:23:07;;;;;;;4.03;1.33;;;23.70;98.10;;;;;;5010128;28;20029;-75
2023/06/04 12:25:34;;;;;;;3.58;1.38;;;23.80;97.70;;;;;;5024768;28;20063;-76
2023/06/04 12:28:00;;;;;;;4.32;1.70;;;23.50;97.10;;;;;;5028873;28;20052;-75
2023/06/04 12:30:40;;;;;;;3.53;1.25;;;23.50;96.60;;;;;;5027643;28;20120;-76
2023/06/04 12:33:05;;;;;;;2.80;1.35;;;23.60;96.70;;;;;;5027561;28;20037;-75
2023/06/04 12:35:31;;;;;;;3.08;1.33;;;23.90;96.70;;;;;;5028837;28;20570;-77
2023/06/04 12:37:57;;;;;;;5.22;1.60;;;23.90;96.60;;;;;;5012587;28;20122;-75
2023/06/04 12:40:22;;;;;;;4.45;1.35;;;23.50;96.20;;;;;;5028559;28;20040;-73
2023/06/04 12:42:50;;;;;;;4.05;1.30;;;23.70;96.50;;;;;;5028063;28;20867;-76
2023/06/04 12:45:17;;;;;;;2.47;1.35;;;23.70;96.90;;;;;;5023925;28;20193;-75
2023/06/04 12:47:42;;;;;;;4.05;1.58;;;24.00;97.00;;;;;;5044307;28;20045;-75